sensor_id;sensor_type;location;lat;lon;timestamp;pressure;altitude;pressure_sealevel;temperature;humidity
22096;BME280;24083;55.670;37.568;2023-04-28T00:02:47;98419.38;;;18.02;100.00
22096;BME280;24083;55.670;37.568;2023-04-28T00:05:14;98414.50;;;18.07;100.00
22096;BME280;24083;55.670;37.568;2023-04-28T00:10:24;98418.41;;;18.13;100.00
22096;BME280;24083;55.670;37.568;2023-04-28T00:12:54;98423.66;;;18.03;100.00
22096;BME280;24083;55.670;37.568;2023-04-28T00:15:25;98417.09;;;17.68;100.00
22096;BME280;24083;55.670;37.568;2023-04-28T00:20:27;98415.16;;;17.70;100.00
22096;BME280;24083;55.670;37.568;2023-04-28T00:22:52;98412.50;;;17.50;100.00
22096;BME280;24083;55.670;37.568;2023-04-28T00:25:21;98410.06;;;17.68;100.00
22096;BME280;24083;55.670;37.568;2023-04-28T00:30:21;98405.00;;;17.45;100.00
22096;BME280;24083;55.670;37.568;2023-04-28T00:32:49;98402.25;;;17.47;100.00
22096;BME280;24083;55.670;37.568;2023-04-28T00:35:15;98400.78;;;17.93;100.00
22096;BME280;24083;55.670;37.568;2023-04-28T00:37:56;98399.78;;;17.94;100.00
22096;BME280;24083;55.670;37.568;2023-04-28T00:40:37;98395.16;;;17.38;100.00
22096;BME280;24083;55.670;37.568;2023-04-28T00:43:03;98400.88;;;17.62;100.00
22096;BME280;24083;55.670;37.568;2023-04-28T00:45:30;98396.19;;;18.15;100.00
22096;BME280;24083;55.670;37.568;2023-04-28T00:47:56;98393.41;;;17.87;100.00
22096;BME280;24083;55.670;37.568;2023-04-28T00:50:22;98399.28;;;18.01;100.00
22096;BME280;24083;55.670;37.568;2023-04-28T00:52:48;98390.63;;;17.99;100.00
22096;BME280;24083;55.670;37.568;2023-04-28T00:55:15;98398.66;;;17.68;100.00
22096;BME280;24083;55.670;37.568;2023-04-28T00:57:41;98388.41;;;18.04;100.00
22096;BME280;24083;55.670;37.568;2023-04-28T01:00:11;98397.59;;;18.00;100.00
22096;BME280;24083;55.670;37.568;2023-04-28T01:02:39;98391.75;;;18.06;100.00
22096;BME280;24083;55.670;37.568;2023-04-28T01:05:05;98399.94;;;18.03;100.00
22096;BME280;24083;55.670;37.568;2023-04-28T01:07:37;98411.31;;;17.23;100.00
22096;BME280;24083;55.670;37.568;2023-04-28T01:10:04;98407.34;;;17.39;100.00
22096;BME280;24083;55.670;37.568;2023-04-28T01:15:08;98403.88;;;17.28;100.00
22096;BME280;24083;55.670;37.568;2023-04-28T01:17:44;98398.78;;;17.46;100.00
22096;BME280;24083;55.670;37.568;2023-04-28T01:20:13;98398.19;;;16.71;100.00
22096;BME280;24083;55.670;37.568;2023-04-28T01:22:48;98401.47;;;16.63;100.00
22096;BME280;24083;55.670;37.568;2023-04-28T01:25:15;98402.09;;;17.58;100.00
22096;BME280;24083;55.670;37.568;2023-04-28T01:27:41;98409.47;;;17.55;100.00
22096;BME280;24083;55.670;37.568;2023-04-28T01:30:07;98412.09;;;17.45;100.00
22096;BME280;24083;55.670;37.568;2023-04-28T01:32:33;98405.19;;;17.13;100.00
22096;BME280;24083;55.670;37.568;2023-04-28T01:34:58;98403.88;;;17.28;100.00
22096;BME280;24083;55.670;37.568;2023-04-28T01:37:31;98408.16;;;17.29;100.00
22096;BME280;24083;55.670;37.568;2023-04-28T01:39:57;98417.03;;;16.97;100.00
22096;BME280;24083;55.670;37.568;2023-04-28T01:42:23;98421.34;;;16.77;100.00
22096;BME280;24083;55.670;37.568;2023-04-28T01:44:55;98409.25;;;16.43;100.00
22096;BME280;24083;55.670;37.568;2023-04-28T01:49:52;98399.56;;;16.96;100.00
22096;BME280;24083;55.670;37.568;2023-04-28T01:52:17;98413.59;;;16.75;100.00
22096;BME280;24083;55.670;37.568;2023-04-28T01:54:45;98418.19;;;17.04;100.00
22096;BME280;24083;55.670;37.568;2023-04-28T01:57:19;98401.31;;;17.17;100.00
22096;BME280;24083;55.670;37.568;2023-04-28T01:59:46;98391.59;;;17.08;100.00
22096;BME280;24083;55.670;37.568;2023-04-28T02:05:05;98382.16;;;17.05;100.00
22096;BME280;24083;55.670;37.568;2023-04-28T02:07:33;98388.66;;;17.52;100.00
22096;BME280;24083;55.670;37.568;2023-04-28T02:10:02;98393.22;;;17.40;100.00
22096;BME280;24083;55.670;37.568;2023-04-28T02:12:29;98397.66;;;17.49;100.00
22096;BME280;24083;55.670;37.568;2023-04-28T02:14:55;98400.06;;;17.62;100.00
22096;BME280;24083;55.670;37.568;2023-04-28T02:17:22;98401.88;;;17.81;100.00
22096;BME280;24083;55.670;37.568;2023-04-28T02:19:53;98393.69;;;17.84;100.00
22096;BME280;24083;55.670;37.568;2023-04-28T02:25:20;98390.06;;;17.56;100.00
22096;BME280;24083;55.670;37.568;2023-04-28T02:30:21;98403.94;;;17.87;100.00
22096;BME280;24083;55.670;37.568;2023-04-28T02:32:49;98398.44;;;18.00;100.00
22096;BME280;24083;55.670;37.568;2023-04-28T02:35:16;98411.19;;;17.25;100.00
22096;BME280;24083;55.670;37.568;2023-04-28T02:37:51;98411.25;;;17.03;100.00
22096;BME280;24083;55.670;37.568;2023-04-28T02:40:22;98417.09;;;17.68;100.00
22096;BME280;24083;55.670;37.568;2023-04-28T02:42:47;98414.22;;;18.10;100.00
22096;BME280;24083;55.670;37.568;2023-04-28T02:45:13;98413.38;;;17.70;100.00
22096;BME280;24083;55.670;37.568;2023-04-28T02:47:49;98413.88;;;17.44;100.00
22096;BME280;24083;55.670;37.568;2023-04-28T02:50:21;98423.88;;;17.41;100.00
22096;BME280;24083;55.670;37.568;2023-04-28T02:52:56;98426.75;;;17.38;100.00
22096;BME280;24083;55.670;37.568;2023-04-28T02:55:22;98423.75;;;17.62;100.00
22096;BME280;24083;55.670;37.568;2023-04-28T02:57:51;98418.34;;;17.13;100.00
22096;BME280;24083;55.670;37.568;2023-04-28T03:00:18;98418.44;;;17.01;100.00
22096;BME280;24083;55.670;37.568;2023-04-28T03:02:46;98412.25;;;17.83;100.00
22096;BME280;24083;55.670;37.568;2023-04-28T03:05:17;98416.00;;;17.70;100.00
22096;BME280;24083;55.670;37.568;2023-04-28T03:07:43;98410.91;;;18.08;100.00
22096;BME280;24083;55.670;37.568;2023-04-28T03:12:38;98399.50;;;18.37;100.00
22096;BME280;24083;55.670;37.568;2023-04-28T03:15:11;98414.75;;;17.64;100.00
22096;BME280;24083;55.670;37.568;2023-04-28T03:17:41;98428.88;;;17.63;100.00
22096;BME280;24083;55.670;37.568;2023-04-28T03:22:48;98428.91;;;17.73;100.00
22096;BME280;24083;55.670;37.568;2023-04-28T03:27:47;98432.03;;;17.38;100.00
22096;BME280;24083;55.670;37.568;2023-04-28T03:30:16;98434.06;;;16.93;100.00
22096;BME280;24083;55.670;37.568;2023-04-28T03:32:43;98436.25;;;17.19;100.00
22096;BME280;24083;55.670;37.568;2023-04-28T03:35:15;98434.75;;;17.77;100.00
22096;BME280;24083;55.670;37.568;2023-04-28T03:40:41;98441.94;;;17.75;100.00
22096;BME280;24083;55.670;37.568;2023-04-28T03:45:57;98445.19;;;16.75;100.00
22096;BME280;24083;55.670;37.568;2023-04-28T03:50:56;98448.47;;;17.20;100.00
22096;BME280;24083;55.670;37.568;2023-04-28T03:53:25;98452.44;;;17.55;100.00
22096;BME280;24083;55.670;37.568;2023-04-28T03:58:49;98449.66;;;17.47;100.00
22096;BME280;24083;55.670;37.568;2023-04-28T04:01:15;98450.81;;;17.74;100.00
22096;BME280;24083;55.670;37.568;2023-04-28T04:03:44;98450.81;;;16.92;100.00
22096;BME280;24083;55.670;37.568;2023-04-28T04:06:10;98453.47;;;17.23;100.00
22096;BME280;24083;55.670;37.568;2023-04-28T04:08:36;98464.84;;;17.74;100.00
22096;BME280;24083;55.670;37.568;2023-04-28T04:11:04;98468.50;;;17.42;100.00
22096;BME280;24083;55.670;37.568;2023-04-28T04:16:01;98458.50;;;17.97;100.00
22096;BME280;24083;55.670;37.568;2023-04-28T04:21:28;98443.38;;;18.18;100.00
22096;BME280;24083;55.670;37.568;2023-04-28T04:27:00;98459.50;;;18.15;100.00
22096;BME280;24083;55.670;37.568;2023-04-28T04:29:37;98462.66;;;18.09;100.00
22096;BME280;24083;55.670;37.568;2023-04-28T04:35:23;98468.63;;;18.60;100.00
22096;BME280;24083;55.670;37.568;2023-04-28T04:37:53;98464.50;;;18.18;100.00
22096;BME280;24083;55.670;37.568;2023-04-28T04:40:21;98470.56;;;17.89;100.00
22096;BME280;24083;55.670;37.568;2023-04-28T04:42:48;98471.69;;;18.16;100.00
22096;BME280;24083;55.670;37.568;2023-04-28T04:45:17;98470.31;;;18.32;100.00
22096;BME280;24083;55.670;37.568;2023-04-28T04:47:46;98474.91;;;18.30;100.00
22096;BME280;24083;55.670;37.568;2023-04-28T04:50:16;98477.50;;;17.90;100.00
22096;BME280;24083;55.670;37.568;2023-04-28T04:52:47;98483.50;;;18.51;100.00
22096;BME280;24083;55.670;37.568;2023-04-28T04:55:23;98484.75;;;18.08;100.00
22096;BME280;24083;55.670;37.568;2023-04-28T04:57:55;98493.31;;;18.69;100.00
22096;BME280;24083;55.670;37.568;2023-04-28T05:00:55;98491.56;;;18.20;100.00
22096;BME280;24083;55.670;37.568;2023-04-28T05:03:27;98489.44;;;18.73;100.00
22096;BME280;24083;55.670;37.568;2023-04-28T05:05:53;98492.94;;;17.54;100.00
22096;BME280;24083;55.670;37.568;2023-04-28T05:08:29;98492.41;;;18.21;100.00
22096;BME280;24083;55.670;37.568;2023-04-28T05:13:28;98484.16;;;18.73;100.00
22096;BME280;24083;55.670;37.568;2023-04-28T05:16:18;98500.03;;;18.24;100.00
22096;BME280;24083;55.670;37.568;2023-04-28T05:19:07;98498.59;;;18.69;100.00
22096;BME280;24083;55.670;37.568;2023-04-28T05:21:37;98498.34;;;19.57;100.00
22096;BME280;24083;55.670;37.568;2023-04-28T05:24:17;98506.25;;;18.72;100.00
22096;BME280;24083;55.670;37.568;2023-04-28T05:26:46;98495.00;;;18.70;100.00
22096;BME280;24083;55.670;37.568;2023-04-28T05:29:13;98504.75;;;18.50;100.00
22096;BME280;24083;55.670;37.568;2023-04-28T05:34:34;98504.66;;;19.75;100.00
22096;BME280;24083;55.670;37.568;2023-04-28T05:37:00;98504.00;;;20.00;100.00
22096;BME280;24083;55.670;37.568;2023-04-28T05:39:27;98496.16;;;19.53;100.00
22096;BME280;24083;55.670;37.568;2023-04-28T05:41:55;98503.16;;;19.72;100.00
22096;BME280;24083;55.670;37.568;2023-04-28T05:44:24;98497.63;;;20.29;100.00
22096;BME280;24083;55.670;37.568;2023-04-28T05:46:51;98491.69;;;20.72;100.00
22096;BME280;24083;55.670;37.568;2023-04-28T05:49:23;98488.50;;;20.86;100.00
22096;BME280;24083;55.670;37.568;2023-04-28T05:51:52;98493.91;;;21.03;100.00
22096;BME280;24083;55.670;37.568;2023-04-28T05:57:16;98506.63;;;19.72;100.00
22096;BME280;24083;55.670;37.568;2023-04-28T05:59:47;98503.84;;;20.56;100.00
22096;BME280;24083;55.670;37.568;2023-04-28T06:02:39;98501.25;;;19.92;100.00
22096;BME280;24083;55.670;37.568;2023-04-28T06:05:10;98491.75;;;19.43;100.00
22096;BME280;24083;55.670;37.568;2023-04-28T06:07:37;98504.41;;;19.96;100.00
22096;BME280;24083;55.670;37.568;2023-04-28T06:10:04;98498.59;;;19.36;100.00
22096;BME280;24083;55.670;37.568;2023-04-28T06:12:32;98493.34;;;19.54;100.00
22096;BME280;24083;55.670;37.568;2023-04-28T06:15:04;98490.16;;;19.23;100.00
22096;BME280;24083;55.670;37.568;2023-04-28T06:17:35;98492.59;;;18.87;100.00
22096;BME280;24083;55.670;37.568;2023-04-28T06:32:46;98490.50;;;19.94;100.00
22096;BME280;24083;55.670;37.568;2023-04-28T06:37:46;98499.00;;;19.41;100.00
22096;BME280;24083;55.670;37.568;2023-04-28T06:40:23;98489.16;;;20.44;100.00
22096;BME280;24083;55.670;37.568;2023-04-28T06:46:20;98498.25;;;20.23;100.00
22096;BME280;24083;55.670;37.568;2023-04-28T06:48:49;98498.31;;;20.31;100.00
22096;BME280;24083;55.670;37.568;2023-04-28T06:51:23;98484.19;;;20.41;100.00
22096;BME280;24083;55.670;37.568;2023-04-28T06:53:53;98487.91;;;21.62;100.00
22096;BME280;24083;55.670;37.568;2023-04-28T07:00:02;98488.06;;;22.45;100.00
22096;BME280;24083;55.670;37.568;2023-04-28T07:06:29;98488.72;;;20.75;100.00
22096;BME280;24083;55.670;37.568;2023-04-28T07:11:49;98491.69;;;22.19;100.00
22096;BME280;24083;55.670;37.568;2023-04-28T07:16:54;98505.31;;;21.30;100.00
22096;BME280;24083;55.670;37.568;2023-04-28T07:19:19;98498.59;;;21.95;100.00
22096;BME280;24083;55.670;37.568;2023-04-28T07:22:03;98504.19;;;21.75;100.00
22096;BME280;24083;55.670;37.568;2023-04-28T07:27:34;98503.84;;;21.62;100.00
22096;BME280;24083;55.670;37.568;2023-04-28T07:30:13;98508.72;;;21.48;100.00
22096;BME280;24083;55.670;37.568;2023-04-28T07:32:42;98519.56;;;20.04;100.00
22096;BME280;24083;55.670;37.568;2023-04-28T07:35:09;98523.25;;;19.83;100.00
22096;BME280;24083;55.670;37.568;2023-04-28T07:37:40;98516.66;;;20.87;100.00
22096;BME280;24083;55.670;37.568;2023-04-28T07:40:15;98511.84;;;21.87;100.00
22096;BME280;24083;55.670;37.568;2023-04-28T07:45:40;98513.75;;;22.19;100.00
22096;BME280;24083;55.670;37.568;2023-04-28T07:48:08;98509.41;;;23.26;100.00
22096;BME280;24083;55.670;37.568;2023-04-28T07:50:35;98510.53;;;21.91;100.00
22096;BME280;24083;55.670;37.568;2023-04-28T07:53:01;98504.75;;;21.53;100.00
22096;BME280;24083;55.670;37.568;2023-04-28T07:55:26;98512.19;;;23.33;100.00
22096;BME280;24083;55.670;37.568;2023-04-28T07:58:05;98506.59;;;23.99;100.00
22096;BME280;24083;55.670;37.568;2023-04-28T08:00:31;98500.22;;;24.32;100.00
22096;BME280;24083;55.670;37.568;2023-04-28T08:02:57;98509.50;;;23.49;100.00
22096;BME280;24083;55.670;37.568;2023-04-28T08:05:24;98499.47;;;23.03;100.00
22096;BME280;24083;55.670;37.568;2023-04-28T08:10:25;98515.94;;;22.82;100.00
22096;BME280;24083;55.670;37.568;2023-04-28T08:18:22;98513.63;;;21.09;100.00
22096;BME280;24083;55.670;37.568;2023-04-28T08:24:50;98528.00;;;19.23;100.00
22096;BME280;24083;55.670;37.568;2023-04-28T08:27:20;98526.09;;;19.71;100.00
22096;BME280;24083;55.670;37.568;2023-04-28T08:32:58;98538.09;;;20.22;100.00
22096;BME280;24083;55.670;37.568;2023-04-28T08:35:24;98529.94;;;20.51;100.00
22096;BME280;24083;55.670;37.568;2023-04-28T08:37:51;98533.75;;;20.75;100.00
22096;BME280;24083;55.670;37.568;2023-04-28T08:40:30;98534.41;;;21.22;100.00
22096;BME280;24083;55.670;37.568;2023-04-28T08:43:16;98528.22;;;21.39;100.00
22096;BME280;24083;55.670;37.568;2023-04-28T08:45:47;98527.63;;;21.54;100.00
22096;BME280;24083;55.670;37.568;2023-04-28T08:53:38;98550.59;;;18.98;100.00
22096;BME280;24083;55.670;37.568;2023-04-28T08:56:05;98553.63;;;18.24;100.00
22096;BME280;24083;55.670;37.568;2023-04-28T08:58:34;98552.66;;;19.42;100.00
22096;BME280;24083;55.670;37.568;2023-04-28T09:01:00;98561.44;;;19.70;100.00
22096;BME280;24083;55.670;37.568;2023-04-28T09:06:20;98548.34;;;19.51;100.00
22096;BME280;24083;55.670;37.568;2023-04-28T09:08:51;98541.72;;;20.02;100.00
22096;BME280;24083;55.670;37.568;2023-04-28T09:11:17;98535.34;;;21.39;100.00
22096;BME280;24083;55.670;37.568;2023-04-28T09:13:47;98523.88;;;22.41;100.00
22096;BME280;24083;55.670;37.568;2023-04-28T09:16:13;98511.25;;;23.65;100.00
22096;BME280;24083;55.670;37.568;2023-04-28T09:19:13;98517.84;;;23.38;100.00
22096;BME280;24083;55.670;37.568;2023-04-28T09:21:32;98526.22;;;23.98;100.00
22096;BME280;24083;55.670;37.568;2023-04-28T09:24:12;98528.06;;;24.29;100.00
22096;BME280;24083;55.670;37.568;2023-04-28T09:32:53;98521.47;;;23.85;100.00
22096;BME280;24083;55.670;37.568;2023-04-28T09:35:39;98514.59;;;23.91;100.00
22096;BME280;24083;55.670;37.568;2023-04-28T09:38:07;98511.38;;;24.35;100.00
22096;BME280;24083;55.670;37.568;2023-04-28T09:40:32;98510.41;;;24.74;100.00
22096;BME280;24083;55.670;37.568;2023-04-28T09:43:22;98512.28;;;24.42;100.00
22096;BME280;24083;55.670;37.568;2023-04-28T09:46:18;98508.81;;;23.47;100.00
22096;BME280;24083;55.670;37.568;2023-04-28T09:49:57;98518.03;;;22.12;100.00
22096;BME280;24083;55.670;37.568;2023-04-28T09:52:24;98524.47;;;21.15;100.00
22096;BME280;24083;55.670;37.568;2023-04-28T09:54:52;98521.22;;;20.77;100.00
22096;BME280;24083;55.670;37.568;2023-04-28T09:57:32;98520.84;;;22.02;100.00
22096;BME280;24083;55.670;37.568;2023-04-28T09:59:59;98529.41;;;21.45;100.00
22096;BME280;24083;55.670;37.568;2023-04-28T10:02:26;98540.44;;;20.25;100.00
22096;BME280;24083;55.670;37.568;2023-04-28T10:07:49;98525.66;;;21.99;100.00
22096;BME280;24083;55.670;37.568;2023-04-28T10:10:15;98528.53;;;23.13;100.00
22096;BME280;24083;55.670;37.568;2023-04-28T10:12:44;98526.13;;;23.43;100.00
22096;BME280;24083;55.670;37.568;2023-04-28T10:15:19;98535.09;;;22.01;100.00
22096;BME280;24083;55.670;37.568;2023-04-28T10:17:46;98533.56;;;22.58;100.00
22096;BME280;24083;55.670;37.568;2023-04-28T10:20:14;98537.84;;;21.40;100.00
22096;BME280;24083;55.670;37.568;2023-04-28T10:25:30;98540.75;;;21.98;100.00
22096;BME280;24083;55.670;37.568;2023-04-28T10:27:57;98531.25;;;22.72;100.00
22096;BME280;24083;55.670;37.568;2023-04-28T10:30:39;98529.53;;;22.21;100.00
22096;BME280;24083;55.670;37.568;2023-04-28T10:39:07;98523.75;;;21.74;100.00
22096;BME280;24083;55.670;37.568;2023-04-28T10:41:53;98534.25;;;21.49;100.00
22096;BME280;24083;55.670;37.568;2023-04-28T10:47:06;98549.78;;;19.63;100.00
22096;BME280;24083;55.670;37.568;2023-04-28T11:06:25;98561.94;;;19.08;100.00
22096;BME280;24083;55.670;37.568;2023-04-28T11:08:54;98563.63;;;18.31;100.00
22096;BME280;24083;55.670;37.568;2023-04-28T11:11:33;98608.84;;;17.02;100.00
22096;BME280;24083;55.670;37.568;2023-04-28T11:16:57;98628.38;;;19.13;100.00
22096;BME280;24083;55.670;37.568;2023-04-28T11:19:42;98640.69;;;17.93;100.00
22096;BME280;24083;55.670;37.568;2023-04-28T11:22:13;98629.75;;;18.59;100.00
22096;BME280;24083;55.670;37.568;2023-04-28T11:25:03;98623.38;;;18.71;100.00
22096;BME280;24083;55.670;37.568;2023-04-28T11:30:29;98608.91;;;20.10;100.00
22096;BME280;24083;55.670;37.568;2023-04-28T11:35:46;98569.19;;;21.18;100.00
22096;BME280;24083;55.670;37.568;2023-04-28T11:38:42;98553.44;;;21.78;100.00
22096;BME280;24083;55.670;37.568;2023-04-28T11:43:49;98558.66;;;21.96;100.00
22096;BME280;24083;55.670;37.568;2023-04-28T11:46:24;98571.72;;;20.29;100.00
22096;BME280;24083;55.670;37.568;2023-04-28T11:49:03;98567.97;;;20.50;100.00
22096;BME280;24083;55.670;37.568;2023-04-28T11:51:40;98560.06;;;19.76;100.00
22096;BME280;24083;55.670;37.568;2023-04-28T11:54:07;98559.34;;;20.12;100.00
22096;BME280;24083;55.670;37.568;2023-04-28T11:59:25;98552.69;;;20.44;100.00
22096;BME280;24083;55.670;37.568;2023-04-28T12:01:55;98560.06;;;19.66;100.00
22096;BME280;24083;55.670;37.568;2023-04-28T12:04:50;98556.16;;;19.70;100.00
22096;BME280;24083;55.670;37.568;2023-04-28T12:07:17;98556.31;;;19.31;100.00
22096;BME280;24083;55.670;37.568;2023-04-28T12:10:09;98566.66;;;19.15;100.00
22096;BME280;24083;55.670;37.568;2023-04-28T12:12:48;98552.94;;;19.49;100.00
22096;BME280;24083;55.670;37.568;2023-04-28T12:15:18;98549.72;;;19.83;100.00
22096;BME280;24083;55.670;37.568;2023-04-28T12:17:46;98552.47;;;19.91;100.00
22096;BME280;24083;55.670;37.568;2023-04-28T12:20:35;98549.22;;;19.41;100.00
22096;BME280;24083;55.670;37.568;2023-04-28T12:23:04;98552.53;;;18.96;100.00
22096;BME280;24083;55.670;37.568;2023-04-28T12:25:45;98556.94;;;19.15;100.00
22096;BME280;24083;55.670;37.568;2023-04-28T12:28:12;98572.81;;;18.46;100.00
22096;BME280;24083;55.670;37.568;2023-04-28T12:30:39;98580.88;;;18.54;100.00
22096;BME280;24083;55.670;37.568;2023-04-28T12:33:24;98585.69;;;18.30;100.00
22096;BME280;24083;55.670;37.568;2023-04-28T12:36:00;98585.38;;;18.03;100.00
22096;BME280;24083;55.670;37.568;2023-04-28T12:38:27;98600.59;;;17.59;100.00
22096;BME280;24083;55.670;37.568;2023-04-28T12:40:54;98647.88;;;16.53;100.00
22096;BME280;24083;55.670;37.568;2023-04-28T12:43:21;98652.72;;;17.13;100.00
22096;BME280;24083;55.670;37.568;2023-04-28T12:45:52;98644.69;;;16.82;100.00
22096;BME280;24083;55.670;37.568;2023-04-28T12:48:21;98653.06;;;17.41;100.00
22096;BME280;24083;55.670;37.568;2023-04-28T12:50:51;98655.56;;;16.77;100.00
22096;BME280;24083;55.670;37.568;2023-04-28T12:53:17;98649.25;;;17.33;100.00
22096;BME280;24083;55.670;37.568;2023-04-28T12:55:45;98647.03;;;16.96;100.00
22096;BME280;24083;55.670;37.568;2023-04-28T12:58:11;98644.81;;;17.34;100.00
22096;BME280;24083;55.670;37.568;2023-04-28T13:00:38;98630.69;;;17.97;100.00
22096;BME280;24083;55.670;37.568;2023-04-28T13:03:06;98634.00;;;18.30;100.00
22096;BME280;24083;55.670;37.568;2023-04-28T13:05:31;98625.28;;;18.30;100.00
22096;BME280;24083;55.670;37.568;2023-04-28T13:08:11;98623.84;;;18.16;100.00
22096;BME280;24083;55.670;37.568;2023-04-28T13:10:39;98639.03;;;17.19;100.00
22096;BME280;24083;55.670;37.568;2023-04-28T13:13:05;98630.75;;;17.76;100.00
22096;BME280;24083;55.670;37.568;2023-04-28T13:15:37;98632.69;;;18.05;100.00
22096;BME280;24083;55.670;37.568;2023-04-28T13:18:21;98645.41;;;17.38;100.00
22096;BME280;24083;55.670;37.568;2023-04-28T13:20:52;98637.97;;;18.05;100.00
22096;BME280;24083;55.670;37.568;2023-04-28T13:23:17;98647.31;;;17.14;100.00
22096;BME280;24083;55.670;37.568;2023-04-28T13:25:46;98649.16;;;17.66;100.00
22096;BME280;24083;55.670;37.568;2023-04-28T13:30:41;98671.13;;;16.36;100.00
22096;BME280;24083;55.670;37.568;2023-04-28T13:33:11;98666.00;;;16.79;100.00
22096;BME280;24083;55.670;37.568;2023-04-28T13:35:45;98682.84;;;15.98;100.00
22096;BME280;24083;55.670;37.568;2023-04-28T13:38:11;98677.50;;;16.66;100.00
22096;BME280;24083;55.670;37.568;2023-04-28T13:40:38;98682.28;;;16.72;100.00
22096;BME280;24083;55.670;37.568;2023-04-28T13:45:33;98703.22;;;15.24;100.00
22096;BME280;24083;55.670;37.568;2023-04-28T13:48:00;98736.00;;;14.94;100.00
22096;BME280;24083;55.670;37.568;2023-04-28T13:50:25;98744.81;;;15.42;100.00
22096;BME280;24083;55.670;37.568;2023-04-28T13:52:52;98747.63;;;15.27;100.00
22096;BME280;24083;55.670;37.568;2023-04-28T13:55:18;98753.81;;;15.86;100.00
22096;BME280;24083;55.670;37.568;2023-04-28T13:57:50;98764.72;;;15.09;100.00
22096;BME280;24083;55.670;37.568;2023-04-28T14:03:28;98769.63;;;15.38;100.00
22096;BME280;24083;55.670;37.568;2023-04-28T14:05:57;98787.94;;;14.52;100.00
22096;BME280;24083;55.670;37.568;2023-04-28T14:08:27;98791.31;;;14.54;100.00
22096;BME280;24083;55.670;37.568;2023-04-28T14:10:54;98799.50;;;14.36;100.00
22096;BME280;24083;55.670;37.568;2023-04-28T14:13:21;98797.19;;;14.45;100.00
22096;BME280;24083;55.670;37.568;2023-04-28T14:15:52;98817.53;;;14.15;100.00
22096;BME280;24083;55.670;37.568;2023-04-28T14:18:20;98780.38;;;14.60;100.00
22096;BME280;24083;55.670;37.568;2023-04-28T14:20:47;98781.06;;;14.88;100.00
22096;BME280;24083;55.670;37.568;2023-04-28T14:23:19;98760.25;;;15.22;100.00
22096;BME280;24083;55.670;37.568;2023-04-28T14:25:46;98762.16;;;15.92;100.00
22096;BME280;24083;55.670;37.568;2023-04-28T14:28:15;98753.34;;;15.57;100.00
22096;BME280;24083;55.670;37.568;2023-04-28T14:30:52;98753.78;;;15.15;100.00
22096;BME280;24083;55.670;37.568;2023-04-28T14:35:53;98752.44;;;15.34;100.00
22096;BME280;24083;55.670;37.568;2023-04-28T14:40:49;98759.19;;;14.76;100.00
22096;BME280;24083;55.670;37.568;2023-04-28T14:48:42;98769.28;;;14.44;100.00
22096;BME280;24083;55.670;37.568;2023-04-28T14:51:12;98756.97;;;15.32;100.00
22096;BME280;24083;55.670;37.568;2023-04-28T14:53:37;98759.53;;;14.46;100.00
22096;BME280;24083;55.670;37.568;2023-04-28T14:56:03;98754.56;;;14.80;100.00
22096;BME280;24083;55.670;37.568;2023-04-28T14:58:30;98749.13;;;14.57;100.00
22096;BME280;24083;55.670;37.568;2023-04-28T15:00:59;98751.44;;;14.75;100.00
22096;BME280;24083;55.670;37.568;2023-04-28T15:03:28;98754.31;;;14.20;100.00
22096;BME280;24083;55.670;37.568;2023-04-28T15:05:54;98755.91;;;13.97;100.00
22096;BME280;24083;55.670;37.568;2023-04-28T15:10:52;98751.56;;;14.34;100.00
22096;BME280;24083;55.670;37.568;2023-04-28T15:13:23;98765.38;;;13.18;100.00
22096;BME280;24083;55.670;37.568;2023-04-28T15:15:53;98778.91;;;13.65;100.00
22096;BME280;24083;55.670;37.568;2023-04-28T15:18:19;98803.72;;;13.32;100.00
22096;BME280;24083;55.670;37.568;2023-04-28T15:20:50;98783.59;;;14.14;100.00
22096;BME280;24083;55.670;37.568;2023-04-28T15:23:18;98783.81;;;13.30;100.00
22096;BME280;24083;55.670;37.568;2023-04-28T15:25:47;98802.13;;;13.30;100.00
22096;BME280;24083;55.670;37.568;2023-04-28T15:28:48;98777.13;;;15.07;100.00
22096;BME280;24083;55.670;37.568;2023-04-28T15:31:14;98800.38;;;13.58;100.00
22096;BME280;24083;55.670;37.568;2023-04-28T15:33:41;98792.13;;;13.09;100.00
22096;BME280;24083;55.670;37.568;2023-04-28T15:36:08;98807.81;;;13.09;100.00
22096;BME280;24083;55.670;37.568;2023-04-28T15:38:35;98801.81;;;13.21;100.00
22096;BME280;24083;55.670;37.568;2023-04-28T15:44:03;98785.22;;;13.63;100.00
22096;BME280;24083;55.670;37.568;2023-04-28T15:46:38;98779.16;;;13.75;100.00
22096;BME280;24083;55.670;37.568;2023-04-28T15:52:02;98757.38;;;14.14;100.00
22096;BME280;24083;55.670;37.568;2023-04-28T15:57:00;98773.84;;;13.49;100.00
22096;BME280;24083;55.670;37.568;2023-04-28T15:59:27;98791.22;;;12.96;100.00
22096;BME280;24083;55.670;37.568;2023-04-28T16:04:58;98812.50;;;13.46;100.00
22096;BME280;24083;55.670;37.568;2023-04-28T16:07:53;98803.38;;;12.97;100.00
22096;BME280;24083;55.670;37.568;2023-04-28T16:13:15;98790.41;;;12.95;100.00
22096;BME280;24083;55.670;37.568;2023-04-28T16:15:51;98796.91;;;12.60;100.00
22096;BME280;24083;55.670;37.568;2023-04-28T16:18:18;98806.03;;;12.24;100.00
22096;BME280;24083;55.670;37.568;2023-04-28T16:20:45;98791.84;;;13.41;100.00
22096;BME280;24083;55.670;37.568;2023-04-28T16:23:12;98801.81;;;13.21;100.00
22096;BME280;24083;55.670;37.568;2023-04-28T16:25:39;98799.88;;;13.78;100.00
22096;BME280;24083;55.670;37.568;2023-04-28T16:28:06;98791.53;;;13.99;100.00